sensor_id;sensor_type;location;lat;lon;timestamp;pressure;altitude;pressure_sealevel;temperature;humidity
57594;BME280;43423;46.510;6.686;2023-02-12T00:02:07;98143.00;;;2.88;60.64
57594;BME280;43423;46.510;6.686;2023-02-12T00:04:33;98147.66;;;2.84;60.71
57594;BME280;43423;46.510;6.686;2023-02-12T00:06:59;98146.88;;;2.80;61.26
57594;BME280;43423;46.510;6.686;2023-02-12T00:09:25;98143.78;;;2.78;61.45
57594;BME280;43423;46.510;6.686;2023-02-12T00:11:50;98155.44;;;2.86;61.39
57594;BME280;43423;46.510;6.686;2023-02-12T00:14:16;98154.66;;;2.85;61.10
57594;BME280;43423;46.510;6.686;2023-02-12T00:16:42;98145.34;;;2.86;61.00
57594;BME280;43423;46.510;6.686;2023-02-12T00:19:08;98149.22;;;2.85;60.90
57594;BME280;43423;46.510;6.686;2023-02-12T00:21:34;98149.59;;;2.87;60.74
57594;BME280;43423;46.510;6.686;2023-02-12T00:24:00;98150.34;;;2.84;59.79
57594;BME280;43423;46.510;6.686;2023-02-12T00:26:26;98146.09;;;2.90;60.33
57594;BME280;43423;46.510;6.686;2023-02-12T00:28:52;98146.88;;;2.91;60.39
57594;BME280;43423;46.510;6.686;2023-02-12T00:31:20;98150.78;;;2.93;60.73
57594;BME280;43423;46.510;6.686;2023-02-12T00:33:46;98156.97;;;2.90;61.23
57594;BME280;43423;46.510;6.686;2023-02-12T00:36:14;98155.41;;;2.82;61.53
57594;BME280;43423;46.510;6.686;2023-02-12T00:38:40;98161.63;;;2.90;60.49
57594;BME280;43423;46.510;6.686;2023-02-12T00:41:06;98160.09;;;2.99;60.38
57594;BME280;43423;46.510;6.686;2023-02-12T00:43:31;98152.31;;;2.80;60.59
57594;BME280;43423;46.510;6.686;2023-02-12T00:45:57;98164.75;;;2.88;60.92
57594;BME280;43423;46.510;6.686;2023-02-12T00:48:22;98164.63;;;2.52;61.53
57594;BME280;43423;46.510;6.686;2023-02-12T00:50:48;98178.59;;;2.47;61.65
57594;BME280;43423;46.510;6.686;2023-02-12T00:53:14;98168.53;;;2.51;62.29
57594;BME280;43423;46.510;6.686;2023-02-12T00:55:40;98163.09;;;2.51;62.33
57594;BME280;43423;46.510;6.686;2023-02-12T00:58:06;98166.19;;;2.50;62.16
57594;BME280;43423;46.510;6.686;2023-02-12T01:00:32;98178.22;;;2.45;61.92
57594;BME280;43423;46.510;6.686;2023-02-12T01:02:57;98170.75;;;2.28;62.54
57594;BME280;43423;46.510;6.686;2023-02-12T01:05:23;98160.72;;;2.39;62.59
57594;BME280;43423;46.510;6.686;2023-02-12T01:07:49;98158.06;;;2.46;62.42
57594;BME280;43423;46.510;6.686;2023-02-12T01:10:15;98168.13;;;2.49;61.84
57594;BME280;43423;46.510;6.686;2023-02-12T01:12:41;98153.41;;;2.54;62.14
57594;BME280;43423;46.510;6.686;2023-02-12T01:15:07;98155.34;;;2.46;62.00
57594;BME280;43423;46.510;6.686;2023-02-12T01:17:36;98170.47;;;2.47;62.84
57594;BME280;43423;46.510;6.686;2023-02-12T01:20:03;98160.00;;;2.53;63.00
57594;BME280;43423;46.510;6.686;2023-02-12T01:22:30;98159.63;;;2.55;62.70
57594;BME280;43423;46.510;6.686;2023-02-12T01:24:55;98170.09;;;2.60;63.26
57594;BME280;43423;46.510;6.686;2023-02-12T01:27:21;98150.69;;;2.47;62.67
57594;BME280;43423;46.510;6.686;2023-02-12T01:29:46;98163.06;;;2.44;63.39
57594;BME280;43423;46.510;6.686;2023-02-12T01:32:12;98157.28;;;2.49;62.48
57594;BME280;43423;46.510;6.686;2023-02-12T01:34:38;98156.09;;;2.50;62.00
57594;BME280;43423;46.510;6.686;2023-02-12T01:37:03;98164.28;;;2.58;61.88
57594;BME280;43423;46.510;6.686;2023-02-12T01:39:29;98163.13;;;2.66;61.89
57594;BME280;43423;46.510;6.686;2023-02-12T01:41:54;98163.94;;;2.73;61.29
57594;BME280;43423;46.510;6.686;2023-02-12T01:44:23;98149.19;;;2.71;62.55
57594;BME280;43423;46.510;6.686;2023-02-12T01:47:00;98150.31;;;2.66;62.28
57594;BME280;43423;46.510;6.686;2023-02-12T01:49:30;98151.50;;;2.65;63.52
57594;BME280;43423;46.510;6.686;2023-02-12T01:52:07;98136.72;;;2.56;63.84
57594;BME280;43423;46.510;6.686;2023-02-12T01:54:36;98144.50;;;2.54;64.85
57594;BME280;43423;46.510;6.686;2023-02-12T01:57:03;98135.97;;;2.59;65.10
57594;BME280;43423;46.510;6.686;2023-02-12T01:59:30;98141.81;;;2.61;65.48
57594;BME280;43423;46.510;6.686;2023-02-12T02:01:55;98134.78;;;2.49;64.59
57594;BME280;43423;46.510;6.686;2023-02-12T02:04:28;98148.34;;;2.52;65.09
57594;BME280;43423;46.510;6.686;2023-02-12T02:06:59;98141.38;;;2.48;64.11
57594;BME280;43423;46.510;6.686;2023-02-12T02:09:27;98134.38;;;2.47;64.73
57594;BME280;43423;46.510;6.686;2023-02-12T02:11:54;98129.72;;;2.40;65.30
57594;BME280;43423;46.510;6.686;2023-02-12T02:14:39;98127.38;;;2.42;64.88
57594;BME280;43423;46.510;6.686;2023-02-12T02:17:15;98122.34;;;2.44;64.06
57594;BME280;43423;46.510;6.686;2023-02-12T02:27:57;98128.94;;;2.50;63.01
57594;BME280;43423;46.510;6.686;2023-02-12T02:33:38;98119.66;;;2.51;63.16
57594;BME280;43423;46.510;6.686;2023-02-12T02:36:14;98111.88;;;2.50;63.12
57594;BME280;43423;46.510;6.686;2023-02-12T02:41:36;98128.94;;;2.40;64.22
57594;BME280;43423;46.510;6.686;2023-02-12T02:44:07;98113.78;;;2.35;63.92
57594;BME280;43423;46.510;6.686;2023-02-12T02:46:48;98115.31;;;2.26;64.71
57594;BME280;43423;46.510;6.686;2023-02-12T02:49:21;98120.00;;;2.39;63.97
57594;BME280;43423;46.510;6.686;2023-02-12T02:51:51;98120.00;;;2.39;63.13
57594;BME280;43423;46.510;6.686;2023-02-12T02:54:24;98112.59;;;2.26;64.82
57594;BME280;43423;46.510;6.686;2023-02-12T02:56:55;98114.16;;;2.27;64.83
57594;BME280;43423;46.510;6.686;2023-02-12T02:59:27;98112.16;;;2.09;64.72
57594;BME280;43423;46.510;6.686;2023-02-12T03:02:17;98115.22;;;2.01;64.40
57594;BME280;43423;46.510;6.686;2023-02-12T03:04:53;98109.72;;;1.86;64.13
57594;BME280;43423;46.510;6.686;2023-02-12T03:07:39;98110.88;;;1.82;64.17
57594;BME280;43423;46.510;6.686;2023-02-12T03:10:16;98108.13;;;1.75;65.15
57594;BME280;43423;46.510;6.686;2023-02-12T03:12:49;98118.19;;;1.74;64.84
57594;BME280;43423;46.510;6.686;2023-02-12T03:17:50;98115.03;;;1.65;65.06
57594;BME280;43423;46.510;6.686;2023-02-12T03:20:19;98113.88;;;1.66;65.02
57594;BME280;43423;46.510;6.686;2023-02-12T03:22:51;98105.38;;;1.67;65.22
57594;BME280;43423;46.510;6.686;2023-02-12T03:25:37;98108.53;;;1.80;64.55
57594;BME280;43423;46.510;6.686;2023-02-12T03:28:22;98104.75;;;1.99;64.68
57594;BME280;43423;46.510;6.686;2023-02-12T03:33:41;98127.22;;;2.00;64.54
57594;BME280;43423;46.510;6.686;2023-02-12T03:36:22;98115.22;;;2.01;64.05
57594;BME280;43423;46.510;6.686;2023-02-12T03:38:54;98107.84;;;2.01;64.46
57594;BME280;43423;46.510;6.686;2023-02-12T03:41:26;98109.41;;;1.99;64.83
57594;BME280;43423;46.510;6.686;2023-02-12T03:44:02;98119.44;;;1.94;64.51
57594;BME280;43423;46.510;6.686;2023-02-12T03:46:40;98120.25;;;1.99;64.24
57594;BME280;43423;46.510;6.686;2023-02-12T03:49:19;98122.63;;;2.07;64.42
57594;BME280;43423;46.510;6.686;2023-02-12T03:51:46;98119.88;;;2.00;64.80
57594;BME280;43423;46.510;6.686;2023-02-12T03:54:15;98118.69;;;1.98;64.66
57594;BME280;43423;46.510;6.686;2023-02-12T03:57:01;98117.13;;;1.96;64.30
57594;BME280;43423;46.510;6.686;2023-02-12T03:59:28;98118.31;;;1.99;64.01
57594;BME280;43423;46.510;6.686;2023-02-12T04:01:56;98111.72;;;2.00;63.83
57594;BME280;43423;46.510;6.686;2023-02-12T04:04:25;98112.50;;;2.01;64.26
57594;BME280;43423;46.510;6.686;2023-02-12T04:06:51;98108.25;;;2.00;64.92
57594;BME280;43423;46.510;6.686;2023-02-12T04:09:19;98118.31;;;2.03;65.32
57594;BME280;43423;46.510;6.686;2023-02-12T04:18:00;98130.38;;;2.09;65.27
57594;BME280;43423;46.510;6.686;2023-02-12T04:28:40;98116.91;;;1.50;66.91
57594;BME280;43423;46.510;6.686;2023-02-12T04:33:42;98116.00;;;1.35;67.23
57594;BME280;43423;46.510;6.686;2023-02-12T04:36:18;98108.63;;;1.32;66.85
57594;BME280;43423;46.510;6.686;2023-02-12T04:38:50;98126.16;;;1.46;66.74
57594;BME280;43423;46.510;6.686;2023-02-12T04:41:18;98127.75;;;1.54;66.33
57594;BME280;43423;46.510;6.686;2023-02-12T04:43:44;98126.63;;;1.62;66.31
57594;BME280;43423;46.510;6.686;2023-02-12T04:46:09;98120.06;;;1.63;66.14
57594;BME280;43423;46.510;6.686;2023-02-12T04:48:49;98123.16;;;1.65;66.39
57594;BME280;43423;46.510;6.686;2023-02-12T04:51:16;98118.47;;;1.55;66.49
57594;BME280;43423;46.510;6.686;2023-02-12T04:53:41;98130.00;;;1.45;66.30
57594;BME280;43423;46.510;6.686;2023-02-12T04:56:10;98121.09;;;1.44;66.76
57594;BME280;43423;46.510;6.686;2023-02-12T04:58:35;98121.88;;;1.45;66.95
57594;BME280;43423;46.510;6.686;2023-02-12T05:01:02;98111.44;;;1.43;66.86
57594;BME280;43423;46.510;6.686;2023-02-12T05:03:27;98115.19;;;1.31;67.05
57594;BME280;43423;46.510;6.686;2023-02-12T05:05:53;98114.03;;;1.29;67.42
57594;BME280;43423;46.510;6.686;2023-02-12T05:08:18;98130.75;;;1.38;67.00
57594;BME280;43423;46.510;6.686;2023-02-12T05:10:44;98106.69;;;1.29;66.66
57594;BME280;43423;46.510;6.686;2023-02-12T05:13:09;98114.75;;;1.22;67.51
57594;BME280;43423;46.510;6.686;2023-02-12T05:15:37;98108.09;;;1.13;67.29
57594;BME280;43423;46.510;6.686;2023-02-12T05:18:03;98107.28;;;1.08;68.01
57594;BME280;43423;46.510;6.686;2023-02-12T05:20:29;98098.69;;;0.99;67.63
57594;BME280;43423;46.510;6.686;2023-02-12T05:22:54;98115.50;;;1.19;68.12
57594;BME280;43423;46.510;6.686;2023-02-12T05:25:20;98107.84;;;1.28;66.71
57594;BME280;43423;46.510;6.686;2023-02-12T05:27:45;98111.00;;;1.37;67.54
57594;BME280;43423;46.510;6.686;2023-02-12T05:30:11;98108.28;;;1.37;66.98
57594;BME280;43423;46.510;6.686;2023-02-12T05:32:37;98106.41;;;1.49;66.93
57594;BME280;43423;46.510;6.686;2023-02-12T05:35:03;98102.19;;;1.55;67.26
57594;BME280;43423;46.510;6.686;2023-02-12T05:37:28;98105.31;;;1.60;67.27
57594;BME280;43423;46.510;6.686;2023-02-12T05:39:55;98093.75;;;1.67;66.76
57594;BME280;43423;46.510;6.686;2023-02-12T05:42:21;98104.59;;;1.71;66.34
57594;BME280;43423;46.510;6.686;2023-02-12T05:44:46;98106.94;;;1.72;66.20
57594;BME280;43423;46.510;6.686;2023-02-12T05:47:12;98108.13;;;1.78;65.65
57594;BME280;43423;46.510;6.686;2023-02-12T05:49:37;98101.56;;;1.83;65.59
57594;BME280;43423;46.510;6.686;2023-02-12T05:52:03;98114.75;;;1.84;66.00
57594;BME280;43423;46.510;6.686;2023-02-12T05:54:29;98110.50;;;1.83;66.27
57594;BME280;43423;46.510;6.686;2023-02-12T05:56:55;98118.63;;;1.83;65.96
57594;BME280;43423;46.510;6.686;2023-02-12T05:59:22;98111.63;;;1.79;66.01
57594;BME280;43423;46.510;6.686;2023-02-12T06:01:49;98106.88;;;1.65;66.93
57594;BME280;43423;46.510;6.686;2023-02-12T06:04:17;98119.28;;;1.59;67.20
57594;BME280;43423;46.510;6.686;2023-02-12T06:06:44;98116.84;;;1.47;67.36
57594;BME280;43423;46.510;6.686;2023-02-12T06:09:12;98118.00;;;1.46;66.02
57594;BME280;43423;46.510;6.686;2023-02-12T06:11:38;98118.34;;;1.40;66.47
57594;BME280;43423;46.510;6.686;2023-02-12T06:14:05;98113.91;;;1.15;67.20
57594;BME280;43423;46.510;6.686;2023-02-12T06:16:31;98114.31;;;1.13;67.04
57594;BME280;43423;46.510;6.686;2023-02-12T06:18:59;98121.31;;;1.21;68.19
57594;BME280;43423;46.510;6.686;2023-02-12T06:21:26;98119.78;;;1.20;67.49
57594;BME280;43423;46.510;6.686;2023-02-12T06:23:52;98122.88;;;1.22;67.20
57594;BME280;43423;46.510;6.686;2023-02-12T06:26:18;98122.03;;;1.11;67.54
57594;BME280;43423;46.510;6.686;2023-02-12T06:28:44;98125.84;;;1.06;67.36
57594;BME280;43423;46.510;6.686;2023-02-12T06:31:18;98131.25;;;1.03;67.98
57594;BME280;43423;46.510;6.686;2023-02-12T06:33:44;98121.22;;;1.07;67.45
57594;BME280;43423;46.510;6.686;2023-02-12T06:36:09;98125.00;;;0.95;68.47
57594;BME280;43423;46.510;6.686;2023-02-12T06:38:35;98121.13;;;0.96;68.24
57594;BME280;43423;46.510;6.686;2023-02-12T06:41:01;98127.69;;;0.95;68.61
57594;BME280;43423;46.510;6.686;2023-02-12T06:43:27;98126.22;;;1.05;68.11
57594;BME280;43423;46.510;6.686;2023-02-12T06:45:53;98130.41;;;0.95;67.94
57594;BME280;43423;46.510;6.686;2023-02-12T06:48:19;98129.59;;;0.95;68.41
57594;BME280;43423;46.510;6.686;2023-02-12T06:50:44;98133.47;;;0.94;68.42
57594;BME280;43423;46.510;6.686;2023-02-12T06:53:10;98137.69;;;0.88;68.06
57594;BME280;43423;46.510;6.686;2023-02-12T06:55:35;98125.97;;;0.76;68.47
57594;BME280;43423;46.510;6.686;2023-02-12T06:58:01;98131.75;;;0.71;69.17
57594;BME280;43423;46.510;6.686;2023-02-12T07:00:26;98137.94;;;0.72;69.36
57594;BME280;43423;46.510;6.686;2023-02-12T07:02:53;98140.63;;;0.72;69.10
57594;BME280;43423;46.510;6.686;2023-02-12T07:05:19;98136.06;;;0.79;69.02
57594;BME280;43423;46.510;6.686;2023-02-12T07:07:45;98140.34;;;0.84;69.27
57594;BME280;43423;46.510;6.686;2023-02-12T07:10:10;98142.75;;;0.93;69.41
57594;BME280;43423;46.510;6.686;2023-02-12T07:12:36;98161.84;;;1.07;69.18
57594;BME280;43423;46.510;6.686;2023-02-12T07:15:01;98147.66;;;1.21;69.41
57594;BME280;43423;46.510;6.686;2023-02-12T07:17:28;98157.06;;;1.37;68.51
57594;BME280;43423;46.510;6.686;2023-02-12T07:19:54;98157.84;;;1.42;67.18
57594;BME280;43423;46.510;6.686;2023-02-12T07:22:19;98157.41;;;1.32;66.89
57594;BME280;43423;46.510;6.686;2023-02-12T07:24:46;98163.34;;;1.49;66.64
57594;BME280;43423;46.510;6.686;2023-02-12T07:27:13;98158.78;;;1.60;66.43
57594;BME280;43423;46.510;6.686;2023-02-12T07:29:38;98159.22;;;1.73;65.94
57594;BME280;43423;46.510;6.686;2023-02-12T07:32:04;98156.22;;;1.85;66.19
57594;BME280;43423;46.510;6.686;2023-02-12T07:34:29;98155.88;;;1.93;65.54
57594;BME280;43423;46.510;6.686;2023-02-12T07:36:55;98169.13;;;2.06;64.86
57594;BME280;43423;46.510;6.686;2023-02-12T07:39:22;98164.56;;;2.24;65.16
57594;BME280;43423;46.510;6.686;2023-02-12T07:41:47;98167.72;;;2.44;64.67
57594;BME280;43423;46.510;6.686;2023-02-12T07:44:13;98155.34;;;2.50;64.38
57594;BME280;43423;46.510;6.686;2023-02-12T07:46:42;98163.53;;;2.64;63.87
57594;BME280;43423;46.510;6.686;2023-02-12T07:49:12;98165.53;;;2.85;63.90
57594;BME280;43423;46.510;6.686;2023-02-12T07:51:38;98176.44;;;3.21;63.59
57594;BME280;43423;46.510;6.686;2023-02-12T07:54:04;98175.66;;;3.42;63.73
57594;BME280;43423;46.510;6.686;2023-02-12T07:56:32;98179.53;;;3.58;63.25
57594;BME280;43423;46.510;6.686;2023-02-12T07:59:01;98174.09;;;3.55;61.27
57594;BME280;43423;46.510;6.686;2023-02-12T08:01:30;98173.31;;;3.69;61.12
57594;BME280;43423;46.510;6.686;2023-02-12T08:04:04;98176.03;;;3.79;61.17
57594;BME280;43423;46.510;6.686;2023-02-12T08:06:32;98181.41;;;4.04;60.92
57594;BME280;43423;46.510;6.686;2023-02-12T08:09:00;98168.97;;;4.07;60.63
57594;BME280;43423;46.510;6.686;2023-02-12T08:11:28;98178.63;;;4.22;60.38
57594;BME280;43423;46.510;6.686;2023-02-12T08:13:54;98181.72;;;4.31;59.48
57594;BME280;43423;46.510;6.686;2023-02-12T08:16:22;98182.03;;;4.51;59.06
57594;BME280;43423;46.510;6.686;2023-02-12T08:18:48;98185.44;;;4.66;58.69
57594;BME280;43423;46.510;6.686;2023-02-12T08:21:25;98180.72;;;4.77;57.84
57594;BME280;43423;46.510;6.686;2023-02-12T08:23:56;98181.19;;;4.61;60.10
57594;BME280;43423;46.510;6.686;2023-02-12T08:26:30;98187.50;;;4.40;59.81
57594;BME280;43423;46.510;6.686;2023-02-12T08:29:01;98184.22;;;4.78;60.42
57594;BME280;43423;46.510;6.686;2023-02-12T08:31:29;98175.91;;;5.06;58.88
57594;BME280;43423;46.510;6.686;2023-02-12T08:33:55;98174.94;;;5.30;57.56
57594;BME280;43423;46.510;6.686;2023-02-12T08:36:25;98178.75;;;5.40;56.03
57594;BME280;43423;46.510;6.686;2023-02-12T08:38:51;98176.81;;;5.41;55.20
57594;BME280;43423;46.510;6.686;2023-02-12T08:41:19;98177.88;;;5.54;55.66
57594;BME280;43423;46.510;6.686;2023-02-12T08:43:45;98178.81;;;5.78;55.21
57594;BME280;43423;46.510;6.686;2023-02-12T08:46:13;98168.56;;;5.89;55.59
57594;BME280;43423;46.510;6.686;2023-02-12T08:48:40;98164.97;;;5.99;54.42
57594;BME280;43423;46.510;6.686;2023-02-12T08:51:14;98170.09;;;6.31;53.19
57594;BME280;43423;46.510;6.686;2023-02-12T08:53:41;98171.09;;;6.44;52.92
57594;BME280;43423;46.510;6.686;2023-02-12T08:56:08;98165.41;;;6.62;53.51
57594;BME280;43423;46.510;6.686;2023-02-12T08:58:35;98170.38;;;6.71;51.72
57594;BME280;43423;46.510;6.686;2023-02-12T09:01:02;98172.13;;;6.58;51.99
57594;BME280;43423;46.510;6.686;2023-02-12T09:03:28;98172.22;;;6.51;51.41
57594;BME280;43423;46.510;6.686;2023-02-12T09:05:53;98168.91;;;6.63;52.48
57594;BME280;43423;46.510;6.686;2023-02-12T09:08:19;98162.59;;;6.69;55.66
57594;BME280;43423;46.510;6.686;2023-02-12T09:10:46;98158.53;;;6.81;54.06
57594;BME280;43423;46.510;6.686;2023-02-12T09:13:12;98166.56;;;6.95;52.74
57594;BME280;43423;46.510;6.686;2023-02-12T09:15:40;98168.75;;;7.04;53.90
57594;BME280;43423;46.510;6.686;2023-02-12T09:18:06;98172.06;;;7.19;54.64
57594;BME280;43423;46.510;6.686;2023-02-12T09:20:32;98167.19;;;7.30;55.76
57594;BME280;43423;46.510;6.686;2023-02-12T09:22:59;98172.06;;;7.19;56.59
57594;BME280;43423;46.510;6.686;2023-02-12T09:25:25;98165.41;;;7.20;56.02
57594;BME280;43423;46.510;6.686;2023-02-12T09:27:50;98169.22;;;6.99;56.81
57594;BME280;43423;46.510;6.686;2023-02-12T09:30:16;98166.00;;;6.47;59.83
57594;BME280;43423;46.510;6.686;2023-02-12T09:32:42;98162.66;;;5.98;61.91
57594;BME280;43423;46.510;6.686;2023-02-12T09:35:08;98174.41;;;5.95;62.65
57594;BME280;43423;46.510;6.686;2023-02-12T09:37:37;98167.75;;;5.96;62.49
57594;BME280;43423;46.510;6.686;2023-02-12T09:40:03;98169.03;;;6.22;63.01
57594;BME280;43423;46.510;6.686;2023-02-12T09:42:39;98162.91;;;6.44;62.40
57594;BME280;43423;46.510;6.686;2023-02-12T09:45:22;98182.41;;;6.47;60.84
57594;BME280;43423;46.510;6.686;2023-02-12T09:48:03;98177.69;;;6.47;61.35
57594;BME280;43423;46.510;6.686;2023-02-12T09:50:39;98177.41;;;6.72;61.26
57594;BME280;43423;46.510;6.686;2023-02-12T09:53:11;98185.06;;;7.11;60.75
57594;BME280;43423;46.510;6.686;2023-02-12T09:55:38;98186.25;;;6.83;60.89
57594;BME280;43423;46.510;6.686;2023-02-12T09:58:11;98183.81;;;6.89;60.91
57594;BME280;43423;46.510;6.686;2023-02-12T10:00:38;98174.50;;;6.56;60.68
57594;BME280;43423;46.510;6.686;2023-02-12T10:03:11;98172.47;;;6.60;60.90
57594;BME280;43423;46.510;6.686;2023-02-12T10:05:43;98174.34;;;6.66;59.40
57594;BME280;43423;46.510;6.686;2023-02-12T10:08:22;98177.63;;;6.54;60.12
57594;BME280;43423;46.510;6.686;2023-02-12T10:11:00;98176.94;;;6.47;60.36
57594;BME280;43423;46.510;6.686;2023-02-12T10:14:08;98171.06;;;6.79;59.39
57594;BME280;43423;46.510;6.686;2023-02-12T10:27:47;98170.34;;;6.75;59.85
57594;BME280;43423;46.510;6.686;2023-02-12T10:30:18;98173.13;;;7.25;58.37
57594;BME280;43423;46.510;6.686;2023-02-12T10:32:46;98171.13;;;7.02;57.69
57594;BME280;43423;46.510;6.686;2023-02-12T10:35:15;98179.72;;;7.04;58.96
57594;BME280;43423;46.510;6.686;2023-02-12T10:37:42;98174.16;;;7.08;58.96
57594;BME280;43423;46.510;6.686;2023-02-12T10:40:29;98177.94;;;7.17;59.03
57594;BME280;43423;46.510;6.686;2023-02-12T10:43:00;98172.28;;;7.05;58.64
57594;BME280;43423;46.510;6.686;2023-02-12T10:50:54;98166.97;;;7.68;56.57
57594;BME280;43423;46.510;6.686;2023-02-12T10:53:31;98152.13;;;7.42;56.86
57594;BME280;43423;46.510;6.686;2023-02-12T10:56:24;98160.31;;;7.69;57.53
57594;BME280;43423;46.510;6.686;2023-02-12T10:58:57;98161.09;;;7.89;56.73
57594;BME280;43423;46.510;6.686;2023-02-12T11:01:30;98144.47;;;7.56;57.80
57594;BME280;43423;46.510;6.686;2023-02-12T11:03:59;98154.31;;;7.97;57.79
57594;BME280;43423;46.510;6.686;2023-02-12T11:07:04;98145.72;;;7.75;57.12
57594;BME280;43423;46.510;6.686;2023-02-12T11:09:36;98139.16;;;7.93;56.84
57594;BME280;43423;46.510;6.686;2023-02-12T11:12:34;98130.03;;;7.99;56.31
57594;BME280;43423;46.510;6.686;2023-02-12T11:15:02;98135.84;;;8.01;57.05
57594;BME280;43423;46.510;6.686;2023-02-12T11:17:34;98112.97;;;7.92;57.55
57594;BME280;43423;46.510;6.686;2023-02-12T11:20:19;98111.56;;;8.23;56.48
57594;BME280;43423;46.510;6.686;2023-02-12T11:23:00;98103.66;;;8.05;56.18
57594;BME280;43423;46.510;6.686;2023-02-12T11:25:31;98104.25;;;8.17;55.33
57594;BME280;43423;46.510;6.686;2023-02-12T11:30:29;98101.88;;;8.38;54.76
57594;BME280;43423;46.510;6.686;2023-02-12T11:33:13;98101.50;;;8.36;54.39
57594;BME280;43423;46.510;6.686;2023-02-12T11:38:37;98092.16;;;8.54;54.21
57594;BME280;43423;46.510;6.686;2023-02-12T11:41:13;98094.22;;;8.66;54.08
57594;BME280;43423;46.510;6.686;2023-02-12T11:43:43;98093.47;;;8.82;53.31
57594;BME280;43423;46.510;6.686;2023-02-12T11:46:09;98099.81;;;8.62;54.09
57594;BME280;43423;46.510;6.686;2023-02-12T11:48:38;98084.94;;;8.24;54.75
57594;BME280;43423;46.510;6.686;2023-02-12T11:51:26;98084.28;;;8.36;54.45
57594;BME280;43423;46.510;6.686;2023-02-12T11:53:56;98076.41;;;8.74;54.56
57594;BME280;43423;46.510;6.686;2023-02-12T11:56:23;98075.78;;;8.30;54.63
57594;BME280;43423;46.510;6.686;2023-02-12T11:58:50;98069.97;;;8.64;54.07
57594;BME280;43423;46.510;6.686;2023-02-12T12:01:22;98078.06;;;8.88;52.57
57594;BME280;43423;46.510;6.686;2023-02-12T12:08:49;98070.34;;;9.15;51.89
57594;BME280;43423;46.510;6.686;2023-02-12T12:11:27;98058.09;;;9.04;52.26
57594;BME280;43423;46.510;6.686;2023-02-12T12:14:01;98063.56;;;8.87;52.46
57594;BME280;43423;46.510;6.686;2023-02-12T12:16:40;98051.31;;;8.92;52.27
57594;BME280;43423;46.510;6.686;2023-02-12T12:19:44;98049.16;;;8.83;51.82
57594;BME280;43423;46.510;6.686;2023-02-12T12:22:45;98045.66;;;8.99;51.73
57594;BME280;43423;46.510;6.686;2023-02-12T12:31:36;98042.81;;;9.19;49.93
57594;BME280;43423;46.510;6.686;2023-02-12T12:34:07;98049.16;;;9.16;50.01
57594;BME280;43423;46.510;6.686;2023-02-12T12:42:52;98047.25;;;9.29;50.60
57594;BME280;43423;46.510;6.686;2023-02-12T12:45:39;98041.31;;;9.47;49.77
57594;BME280;43423;46.510;6.686;2023-02-12T12:51:15;98027.75;;;9.11;49.91
57594;BME280;43423;46.510;6.686;2023-02-12T12:54:05;98031.06;;;9.35;50.27
57594;BME280;43423;46.510;6.686;2023-02-12T12:56:44;98026.44;;;9.61;49.06
57594;BME280;43423;46.510;6.686;2023-02-12T13:07:35;98017.38;;;9.76;47.03
57594;BME280;43423;46.510;6.686;2023-02-12T13:15:56;98018.63;;;10.01;47.27
57594;BME280;43423;46.510;6.686;2023-02-12T13:18:56;98021.44;;;10.14;46.79
57594;BME280;43423;46.510;6.686;2023-02-12T13:26:54;98010.41;;;10.01;47.85
57594;BME280;43423;46.510;6.686;2023-02-12T13:29:34;98002.72;;;9.96;47.38
57594;BME280;43423;46.510;6.686;2023-02-12T13:32:05;98004.72;;;10.21;46.33
57594;BME280;43423;46.510;6.686;2023-02-12T13:34:34;98000.25;;;10.27;46.99
57594;BME280;43423;46.510;6.686;2023-02-12T13:37:02;97997.50;;;10.52;45.55
57594;BME280;43423;46.510;6.686;2023-02-12T13:39:37;97996.16;;;10.57;45.63
57594;BME280;43423;46.510;6.686;2023-02-12T13:44:53;97993.72;;;10.21;46.92
57594;BME280;43423;46.510;6.686;2023-02-12T13:47:33;97989.16;;;10.43;45.63
57594;BME280;43423;46.510;6.686;2023-02-12T13:53:01;97993.22;;;10.51;46.06
57594;BME280;43423;46.510;6.686;2023-02-12T13:55:37;97987.94;;;10.57;46.86
57594;BME280;43423;46.510;6.686;2023-02-12T14:01:04;97987.59;;;10.55;45.86
57594;BME280;43423;46.510;6.686;2023-02-12T14:03:32;97983.63;;;10.69;45.47
57594;BME280;43423;46.510;6.686;2023-02-12T14:06:09;97992.31;;;10.80;45.28
57594;BME280;43423;46.510;6.686;2023-02-12T14:08:38;97987.09;;;11.07;44.49
57594;BME280;43423;46.510;6.686;2023-02-12T14:11:10;97994.38;;;10.88;45.18
57594;BME280;43423;46.510;6.686;2023-02-12T14:13:48;98001.34;;;10.68;46.16
57594;BME280;43423;46.510;6.686;2023-02-12T14:16:35;97996.34;;;11.01;45.27
57594;BME280;43423;46.510;6.686;2023-02-12T14:19:37;98005.28;;;10.92;46.10
57594;BME280;43423;46.510;6.686;2023-02-12T14:22:56;97992.78;;;10.53;45.43
57594;BME280;43423;46.510;6.686;2023-02-12T14:25:41;97994.59;;;10.94;45.88
57594;BME280;43423;46.510;6.686;2023-02-12T14:27:47;97995.13;;;11.02;44.72
57594;BME280;43423;46.510;6.686;2023-02-12T14:35:34;97995.72;;;11.31;43.35
57594;BME280;43423;46.510;6.686;2023-02-12T14:40:52;97997.44;;;11.03;43.10
57594;BME280;43423;46.510;6.686;2023-02-12T14:46:49;98004.19;;;10.64;45.25
57594;BME280;43423;46.510;6.686;2023-02-12T14:49:45;97998.19;;;10.44;45.24
57594;BME280;43423;46.510;6.686;2023-02-12T14:52:25;98002.22;;;10.26;45.40
57594;BME280;43423;46.510;6.686;2023-02-12T14:55:02;98004.44;;;9.90;46.28
57594;BME280;43423;46.510;6.686;2023-02-12T14:57:32;98000.44;;;9.78;47.02
57594;BME280;43423;46.510;6.686;2023-02-12T15:03:04;98000.06;;;9.63;47.67
57594;BME280;43423;46.510;6.686;2023-02-12T15:05:36;97997.81;;;9.74;47.52
57594;BME280;43423;46.510;6.686;2023-02-12T15:10:51;97994.38;;;9.70;48.33
57594;BME280;43423;46.510;6.686;2023-02-12T15:13:25;98000.19;;;9.60;48.13
57594;BME280;43423;46.510;6.686;2023-02-12T15:15:58;98000.94;;;9.60;47.05
57594;BME280;43423;46.510;6.686;2023-02-12T15:21:32;98004.88;;;9.30;48.11
57594;BME280;43423;46.510;6.686;2023-02-12T15:24:07;98001.31;;;9.17;48.84
57594;BME280;43423;46.510;6.686;2023-02-12T15:26:43;98006.22;;;9.09;49.49
57594;BME280;43423;46.510;6.686;2023-02-12T15:29:41;98002.28;;;8.94;49.82
57594;BME280;43423;46.510;6.686;2023-02-12T15:32:15;97995.25;;;8.93;49.65
57594;BME280;43423;46.510;6.686;2023-02-12T15:34:42;97997.31;;;8.89;50.13
57594;BME280;43423;46.510;6.686;2023-02-12T15:37:19;97996.63;;;8.68;50.39